Time;durP1;ratioP1;P1;durP2;ratioP2;P2;SDS_P1;SDS_P2;PMS_P1;PMS_P2;Temp;Humidity;BMP_temperature;BMP_pressure;BME280_temperature;BME280_humidity;BME280_pressure;Samples;Min_cycle;Max_cycle;Signal;HPM_P1;HPM_P2
2024/04/01 00:02:05;;;;;;;41.50;5.13;;;7.60;99.90;;;;;;20493601;29;20028;-45
2024/04/01 00:12:07;;;;;;;41.25;4.65;;;7.50;99.90;;;;;;20491901;29;20086;-41
2024/04/01 00:22:09;;;;;;;41.47;5.60;;;7.50;99.90;;;;;;20458403;29;20055;-44
2024/04/01 00:32:11;;;;;;;36.17;4.68;;;7.60;99.90;;;;;;20508657;29;20043;-44
2024/04/01 00:42:13;;;;;;;42.60;5.75;;;7.60;99.90;;;;;;20490831;29;20067;-44
2024/04/01 00:52:15;;;;;;;45.17;4.90;;;7.60;99.90;;;;;;20489097;29;20039;-40
2024/04/01 01:02:19;;;;;;;37.13;4.82;;;7.70;99.90;;;;;;20337373;29;20103;-42
2024/04/01 01:12:20;;;;;;;31.88;5.43;;;7.70;99.90;;;;;;20291025;29;20277;-43
2024/04/01 01:22:39;;;;;;;33.03;4.00;;;7.60;99.90;;;;;;20319667;29;20048;-41
2024/04/01 01:32:55;;;;;;;38.85;4.70;;;7.70;99.90;;;;;;20394440;29;20055;-44
2024/04/01 01:42:57;;;;;;;30.23;3.90;;;7.70;99.90;;;;;;20492210;29;20066;-41
2024/04/01 01:53:00;;;;;;;33.78;4.25;;;7.60;99.90;;;;;;20501910;29;20035;-40
2024/04/01 02:03:06;;;;;;;35.30;5.53;;;7.70;99.90;;;;;;20428078;29;20115;-41
2024/04/01 02:13:09;;;;;;;32.40;4.32;;;7.70;99.90;;;;;;20430088;29;20063;-40
2024/04/01 02:23:11;;;;;;;42.75;6.88;;;7.70;99.90;;;;;;20423463;29;20075;-42
2024/04/01 02:33:13;;;;;;;72.57;8.15;;;7.70;99.90;;;;;;20420919;29;20044;-46
2024/04/01 02:43:14;;;;;;;415.13;24.15;;;7.70;99.90;;;;;;20441851;29;20491;-42
2024/04/01 02:53:16;;;;;;;57.40;6.82;;;7.70;99.90;;;;;;20451836;29;20031;-41
2024/04/01 03:03:18;;;;;;;213.32;12.55;;;7.70;99.90;;;;;;20226566;29;20687;-40
2024/04/01 03:13:23;;;;;;;225.02;19.17;;;7.70;99.90;;;;;;20228755;29;20052;-41
2024/04/01 03:23:25;;;;;;;290.42;17.60;;;7.70;99.90;;;;;;20252927;29;20045;-42
2024/04/01 03:33:26;;;;;;;263.38;12.73;;;7.70;99.90;;;;;;20387434;29;20052;-41
2024/04/01 03:43:31;;;;;;;255.77;18.98;;;7.80;99.90;;;;;;20500966;29;20038;-44
2024/04/01 03:53:33;;;;;;;538.85;32.40;;;7.80;99.90;;;;;;20465689;29;20031;-41
2024/04/01 04:03:35;;;;;;;536.85;22.98;;;7.70;99.90;;;;;;20510907;29;20050;-41
2024/04/01 04:13:37;;;;;;;726.78;29.73;;;7.80;99.90;;;;;;20509373;29;20031;-43
2024/04/01 04:23:44;;;;;;;807.83;32.95;;;7.80;99.90;;;;;;20508628;28;20043;-41
2024/04/01 04:33:47;;;;;;;678.80;23.98;;;7.70;99.90;;;;;;20464424;29;20099;-42
2024/04/01 04:43:54;;;;;;;778.90;28.63;;;7.80;99.90;;;;;;20429947;29;20032;-41
2024/04/01 04:53:56;;;;;;;317.98;16.55;;;7.80;99.90;;;;;;20463825;29;20047;-42
2024/04/01 05:03:59;;;;;;;882.70;40.42;;;7.70;99.90;;;;;;20506663;29;20411;-41
2024/04/01 05:14:01;;;;;;;347.80;16.23;;;7.80;99.90;;;;;;20504933;29;20042;-45
2024/04/01 05:24:04;;;;;;;503.85;19.13;;;7.70;99.90;;;;;;20504344;28;20047;-42
2024/04/01 05:34:09;;;;;;;385.55;13.13;;;7.80;99.90;;;;;;20486901;29;20039;-40
2024/04/01 05:44:11;;;;;;;702.15;21.75;;;7.70;99.90;;;;;;20502838;29;20051;-41
2024/04/01 05:54:12;;;;;;;227.15;7.47;;;7.70;99.90;;;;;;20484609;28;20043;-48
2024/04/01 06:04:14;;;;;;;286.38;10.05;;;7.70;99.90;;;;;;20436082;29;20040;-43
2024/04/01 06:14:16;;;;;;;437.08;14.70;;;7.70;99.90;;;;;;20500168;29;20031;-40
2024/04/01 06:24:18;;;;;;;458.40;20.17;;;7.60;99.90;;;;;;20500197;29;20084;-39
2024/04/01 06:34:20;;;;;;;262.33;14.30;;;7.40;99.90;;;;;;20483033;29;20039;-39
2024/04/01 06:44:25;;;;;;;8.23;0.85;;;7.20;99.90;;;;;;20419650;29;20039;-40
2024/04/01 06:54:27;;;;;;;7.35;1.00;;;7.00;99.90;;;;;;20420631;29;20134;-40
2024/04/01 07:04:29;;;;;;;4.38;0.82;;;7.00;99.90;;;;;;20427307;29;20862;-42
2024/04/01 07:14:31;;;;;;;159.77;7.57;;;6.90;99.90;;;;;;20369777;29;20484;-49
2024/04/01 07:24:32;;;;;;;6.20;0.90;;;6.80;99.90;;;;;;20437557;29;20051;-40
2024/04/01 07:34:34;;;;;;;7.43;0.68;;;6.70;99.90;;;;;;20433946;29;20439;-39
2024/04/01 07:44:36;;;;;;;11.50;0.80;;;6.50;99.90;;;;;;20430973;29;20306;-41
2024/04/01 07:54:39;;;;;;;4.72;0.35;;;6.40;99.90;;;;;;20431394;29;20039;-41
2024/04/01 08:04:40;;;;;;;1.98;0.28;;;6.30;99.90;;;;;;20433259;29;20039;-42
2024/04/01 08:14:42;;;;;;;1.20;0.00;;;6.00;99.90;;;;;;20509436;28;20087;-39
2024/04/01 08:24:44;;;;;;;0.40;0.08;;;5.60;99.90;;;;;;20341589;29;20107;-39
2024/04/01 08:34:46;;;;;;;1.25;0.25;;;5.40;99.90;;;;;;20341073;29;20092;-43
2024/04/01 08:44:48;;;;;;;2.28;0.20;;;5.60;99.90;;;;;;20295121;29;20048;-39
2024/04/01 08:54:51;;;;;;;8.25;0.57;;;5.80;99.90;;;;;;20292846;29;20098;-40
2024/04/01 09:04:55;;;;;;;155.18;8.00;;;6.00;99.90;;;;;;20427243;29;20023;-44
2024/04/01 09:14:57;;;;;;;196.60;6.45;;;6.10;99.90;;;;;;20435988;29;20043;-40
2024/04/01 09:24:59;;;;;;;222.88;8.18;;;6.20;99.90;;;;;;20472078;28;20094;-44
2024/04/01 09:35:01;;;;;;;7.82;1.20;;;6.30;99.90;;;;;;20451838;29;20133;-39
2024/04/01 09:45:07;;;;;;;30.38;2.60;;;6.60;99.90;;;;;;20423354;29;20046;-44
2024/04/01 09:55:18;;;;;;;8.82;1.00;;;6.80;99.90;;;;;;20455811;29;20031;-42
2024/04/01 10:05:41;;;;;;;5.78;0.85;;;7.50;99.90;;;;;;20494648;29;20079;-39
2024/04/01 10:16:04;;;;;;;8.73;1.02;;;8.00;99.90;;;;;;20481679;29;20095;-40
2024/04/01 10:26:18;;;;;;;5.32;0.88;;;8.20;99.90;;;;;;20480168;29;20043;-39
2024/04/01 10:36:47;;;;;;;5.50;0.90;;;8.40;99.90;;;;;;20450270;29;20040;-40
2024/04/01 10:47:26;;;;;;;8.02;1.23;;;8.30;99.90;;;;;;20439118;29;20039;-41
2024/04/01 10:58:09;;;;;;;7.93;1.20;;;8.00;99.90;;;;;;20439960;29;20043;-45
2024/04/01 11:08:31;;;;;;;41.17;2.97;;;7.70;99.90;;;;;;20433107;29;20039;-39
2024/04/01 11:18:32;;;;;;;10.40;1.90;;;7.80;99.90;;;;;;20498657;29;20424;-39
2024/04/01 11:28:43;;;;;;;863.47;36.35;;;7.70;99.90;;;;;;20489343;29;20051;-40
2024/04/01 11:39:03;;;;;;;559.90;25.30;;;7.50;99.90;;;;;;20461494;29;20032;-40
2024/04/01 11:49:05;;;;;;;4.15;0.98;;;7.50;99.90;;;;;;20433051;28;20068;-39
2024/04/01 11:59:08;;;;;;;4.72;1.00;;;7.60;99.90;;;;;;20451058;29;20047;-38
2024/04/01 12:09:12;;;;;;;5.72;1.30;;;7.60;99.90;;;;;;20437042;29;20502;-39
2024/04/01 12:19:15;;;;;;;4.13;0.85;;;7.60;99.90;;;;;;20450875;29;20050;-40
2024/04/01 12:29:17;;;;;;;4.63;1.15;;;7.50;99.90;;;;;;20349972;29;20107;-39
2024/04/01 12:39:21;;;;;;;4.93;0.75;;;7.40;99.90;;;;;;20369048;29;20781;-41
2024/04/01 12:49:24;;;;;;;4.47;0.70;;;7.30;99.90;;;;;;20344085;29;20673;-42
2024/04/01 12:59:40;;;;;;;1.40;0.40;;;7.20;99.90;;;;;;20352210;29;20028;-38
2024/04/01 13:10:03;;;;;;;1.42;0.45;;;7.20;99.90;;;;;;20356176;29;20039;-40
2024/04/01 13:20:19;;;;;;;5.85;0.55;;;7.60;99.90;;;;;;20370459;29;20040;-40
2024/04/01 13:30:51;;;;;;;3.38;0.40;;;8.20;99.90;;;;;;20403839;29;20044;-41
2024/04/01 13:41:02;;;;;;;1.88;0.50;;;8.20;99.90;;;;;;20378533;29;20043;-39
2024/04/01 13:51:20;;;;;;;4.03;0.50;;;8.00;99.90;;;;;;20395162;29;20039;-39
2024/04/01 14:01:32;;;;;;;1.33;0.28;;;8.00;99.90;;;;;;20345152;29;20048;-39
2024/04/01 14:11:52;;;;;;;1.73;0.30;;;7.90;99.90;;;;;;20362744;29;20032;-40
2024/04/01 14:21:55;;;;;;;1.15;0.30;;;8.00;99.90;;;;;;20346625;29;20387;-39
2024/04/01 14:31:57;;;;;;;3.17;0.40;;;8.10;99.90;;;;;;20456119;29;20110;-40
2024/04/01 14:41:59;;;;;;;1.13;0.38;;;8.10;99.90;;;;;;20491644;29;20035;-39
2024/04/01 14:52:02;;;;;;;1.73;0.40;;;8.10;99.90;;;;;;20407999;29;20051;-39
2024/04/01 15:02:05;;;;;;;2.38;0.40;;;8.40;99.90;;;;;;20442979;29;20036;-39
2024/04/01 15:12:07;;;;;;;3.95;0.68;;;8.50;99.90;;;;;;20433689;29;20043;-39
2024/04/01 15:22:10;;;;;;;2.70;0.40;;;8.90;99.90;;;;;;20428155;28;20058;-39
2024/04/01 15:32:13;;;;;;;4.32;0.57;;;8.80;99.90;;;;;;20509784;29;20090;-39
2024/04/01 15:42:15;;;;;;;2.53;0.47;;;8.40;99.90;;;;;;20468155;29;20035;-39
2024/04/01 15:52:18;;;;;;;4.45;0.98;;;8.50;99.90;;;;;;20463721;29;20035;-39
2024/04/01 16:02:23;;;;;;;3.03;0.70;;;8.30;99.90;;;;;;20481958;29;20036;-38
2024/04/01 16:12:26;;;;;;;6.05;0.70;;;8.30;99.90;;;;;;20459989;29;20032;-38
2024/04/01 16:22:30;;;;;;;1.92;0.68;;;8.20;99.90;;;;;;20431028;29;20039;-39
2024/04/01 16:32:34;;;;;;;3.90;0.77;;;7.90;99.90;;;;;;20434536;29;20513;-41
2024/04/01 16:42:37;;;;;;;5.35;0.77;;;7.80;99.90;;;;;;20456832;29;20555;-42
2024/04/01 16:52:42;;;;;;;6.00;1.20;;;7.50;99.90;;;;;;20454853;29;20391;-39
2024/04/01 17:02:45;;;;;;;7.05;1.58;;;7.20;99.90;;;;;;20507044;29;20036;-38
2024/04/01 17:12:47;;;;;;;7.35;1.52;;;7.00;99.90;;;;;;20505687;29;20031;-39
2024/04/01 17:22:50;;;;;;;6.82;1.85;;;6.70;99.90;;;;;;20485425;29;20050;-40
2024/04/01 17:32:54;;;;;;;11.38;2.20;;;6.50;99.90;;;;;;20487605;29;20067;-38
2024/04/01 17:42:56;;;;;;;12.48;2.40;;;6.50;99.90;;;;;;20503466;28;20038;-39
2024/04/01 17:52:58;;;;;;;2.05;0.10;;;6.40;99.90;;;;;;20473483;29;20038;-38
2024/04/01 18:03:01;;;;;;;0.90;0.00;;;5.30;99.90;;;;;;20446101;29;20471;-39
2024/04/01 18:13:04;;;;;;;0.00;0.00;;;3.90;99.90;;;;;;20491334;29;20038;-39
2024/04/01 18:23:06;;;;;;;0.00;0.00;;;3.40;99.90;;;;;;20501176;29;20047;-40
2024/04/01 18:33:14;;;;;;;0.00;0.00;;;3.20;99.90;;;;;;20493664;29;20055;-43
2024/04/01 18:43:21;;;;;;;0.15;0.00;;;4.10;99.90;;;;;;20491517;29;20050;-42
2024/04/01 18:53:23;;;;;;;0.20;0.10;;;3.70;99.90;;;;;;20471336;29;20035;-39
2024/04/01 19:03:25;;;;;;;0.00;0.00;;;3.20;99.90;;;;;;20490605;28;20415;-44
2024/04/01 19:13:27;;;;;;;0.00;0.00;;;3.40;99.90;;;;;;20482219;29;20039;-44
2024/04/01 19:23:29;;;;;;;0.00;0.00;;;3.10;99.90;;;;;;20467177;29;20043;-41
2024/04/01 19:33:31;;;;;;;0.30;0.00;;;3.10;99.90;;;;;;20513829;29;20098;-39
2024/04/01 19:43:34;;;;;;;0.00;0.00;;;3.30;99.90;;;;;;20493535;29;20039;-38
2024/04/01 19:53:39;;;;;;;0.80;0.00;;;3.80;99.90;;;;;;20466419;29;20035;-42
2024/04/01 20:03:44;;;;;;;0.10;0.00;;;3.80;99.90;;;;;;20511501;29;20039;-39
2024/04/01 20:13:46;;;;;;;0.13;0.00;;;3.30;99.90;;;;;;20509498;28;20031;-42
2024/04/01 20:23:51;;;;;;;0.55;0.00;;;2.90;99.90;;;;;;20473150;29;20047;-38
2024/04/01 20:33:53;;;;;;;0.00;0.00;;;3.20;99.90;;;;;;20509307;29;20399;-38
2024/04/01 20:43:57;;;;;;;0.22;0.00;;;3.30;99.90;;;;;;20341025;29;20407;-38
2024/04/01 20:54:00;;;;;;;0.73;0.20;;;3.20;99.90;;;;;;20312205;29;20416;-38
2024/04/01 21:04:02;;;;;;;0.52;0.20;;;3.00;99.90;;;;;;20276753;29;20040;-38
2024/04/01 21:14:04;;;;;;;1.75;0.10;;;2.60;99.90;;;;;;20453708;29;20087;-39
2024/04/01 21:24:08;;;;;;;0.10;0.00;;;2.60;99.90;;;;;;20505389;28;20051;-39
2024/04/01 21:34:10;;;;;;;0.10;0.00;;;2.50;99.90;;;;;;20488919;29;20032;-38
2024/04/01 21:44:12;;;;;;;0.65;0.10;;;2.20;99.90;;;;;;20448561;29;20044;-39
2024/04/01 21:54:14;;;;;;;0.00;0.00;;;2.10;99.90;;;;;;20454193;29;20040;-40
2024/04/01 22:04:16;;;;;;;0.00;0.00;;;2.40;99.90;;;;;;20424161;29;20425;-38
2024/04/01 22:14:19;;;;;;;0.00;0.00;;;2.70;99.90;;;;;;20465547;29;20099;-38
2024/04/01 22:24:20;;;;;;;0.10;0.00;;;3.30;99.90;;;;;;20449152;29;20046;-39
2024/04/01 22:34:24;;;;;;;0.00;0.00;;;3.10;99.90;;;;;;20403350;29;20132;-38
2024/04/01 22:44:31;;;;;;;0.10;0.00;;;3.00;99.90;;;;;;20458634;29;20039;-38
2024/04/01 22:54:35;;;;;;;0.03;0.00;;;2.30;99.90;;;;;;20461416;29;20475;-39
2024/04/01 23:04:37;;;;;;;0.00;0.00;;;2.00;99.90;;;;;;20345680;29;20059;-39
2024/04/01 23:14:39;;;;;;;0.00;0.00;;;1.90;99.90;;;;;;20498901;29;20043;-39
2024/04/01 23:24:41;;;;;;;0.22;0.00;;;2.00;99.90;;;;;;20486522;29;20055;-40
2024/04/01 23:34:43;;;;;;;0.00;0.00;;;2.40;99.90;;;;;;20498775;29;20502;-38
2024/04/01 23:44:45;;;;;;;0.00;0.00;;;2.40;99.90;;;;;;20486621;28;20051;-39
2024/04/01 23:54:47;;;;;;;0.00;0.00;;;2.00;99.90;;;;;;20466289;29;20039;-39
